Time;durP1;ratioP1;P1;durP2;ratioP2;P2;SDS_P1;SDS_P2;PMS_P1;PMS_P2;Temp;Humidity;BMP_temperature;BMP_pressure;BME280_temperature;BME280_humidity;BME280_pressure;Samples;Min_cycle;Max_cycle;Signal;HPM_P1;HPM_P2
2022/08/11 00:01:22;;;;;;;10.03;2.43;;;20.60;93.40;;;;;;5053547;28;20672;-41
2022/08/11 00:03:59;;;;;;;5.23;2.00;;;20.40;93.90;;;;;;5053950;28;20167;-42
2022/08/11 00:06:36;;;;;;;4.63;1.90;;;20.20;93.90;;;;;;5052326;28;20174;-43
2022/08/11 00:09:31;;;;;;;3.10;2.17;;;20.10;94.00;;;;;;5054325;28;20233;-40
2022/08/11 00:11:58;;;;;;;4.10;2.13;;;20.10;94.20;;;;;;5053768;28;20613;-42
2022/08/11 00:14:25;;;;;;;4.57;2.30;;;20.00;94.40;;;;;;5053389;28;20183;-41
2022/08/11 00:16:55;;;;;;;4.47;2.40;;;19.90;94.30;;;;;;5053410;28;20667;-42
2022/08/11 00:19:23;;;;;;;3.07;1.93;;;19.90;94.60;;;;;;5053754;28;20228;-43
2022/08/11 00:21:50;;;;;;;6.10;2.00;;;19.80;94.60;;;;;;5053589;28;20240;-41
2022/08/11 00:24:16;;;;;;;4.33;2.20;;;19.80;94.60;;;;;;5053672;28;20176;-43
2022/08/11 00:26:47;;;;;;;5.57;2.37;;;19.70;94.60;;;;;;5054429;28;20679;-43
2022/08/11 00:29:13;;;;;;;2.17;1.80;;;19.70;94.60;;;;;;5053524;28;20157;-43
2022/08/11 00:31:46;;;;;;;5.30;2.00;;;19.60;94.70;;;;;;5052976;28;20200;-42
2022/08/11 00:34:12;;;;;;;6.20;2.30;;;19.50;94.80;;;;;;5053128;28;20629;-42
2022/08/11 00:36:45;;;;;;;4.43;2.00;;;19.60;95.20;;;;;;5053357;28;20233;-41
2022/08/11 00:39:14;;;;;;;7.57;2.77;;;19.50;95.30;;;;;;5053109;28;20223;-41
2022/08/11 00:41:55;;;;;;;5.63;2.00;;;19.40;95.50;;;;;;5053070;28;20543;-42
2022/08/11 00:44:41;;;;;;;6.77;2.40;;;19.30;95.70;;;;;;5053044;28;20255;-41
2022/08/11 00:47:22;;;;;;;6.60;2.40;;;19.30;96.00;;;;;;5053374;28;20636;-41
2022/08/11 00:50:11;;;;;;;4.97;2.47;;;19.30;96.00;;;;;;5053189;28;20168;-42
2022/08/11 00:52:58;;;;;;;3.73;2.33;;;19.20;96.20;;;;;;5053320;28;20164;-41
2022/08/11 00:55:45;;;;;;;9.37;2.50;;;19.10;96.20;;;;;;5053513;28;20192;-41
2022/08/11 00:58:22;;;;;;;7.57;2.77;;;19.10;96.60;;;;;;5053141;28;20608;-41
2022/08/11 01:01:07;;;;;;;4.47;2.30;;;19.10;96.70;;;;;;5052762;28;20196;-41
2022/08/11 01:03:38;;;;;;;6.90;2.40;;;18.90;96.60;;;;;;5053409;28;20171;-43
2022/08/11 01:06:27;;;;;;;3.30;2.10;;;18.90;96.80;;;;;;5053133;28;20157;-42
2022/08/11 01:09:31;;;;;;;6.70;2.43;;;18.90;97.00;;;;;;5052133;28;20172;-42
2022/08/11 01:12:43;;;;;;;3.37;2.23;;;18.80;97.10;;;;;;5053051;28;20208;-41
2022/08/11 01:15:43;;;;;;;6.10;2.30;;;18.70;97.30;;;;;;5043189;28;20226;-41
2022/08/11 01:18:42;;;;;;;9.03;2.70;;;18.70;97.60;;;;;;5052598;28;20192;-41
2022/08/11 01:21:08;;;;;;;5.67;2.60;;;18.60;97.80;;;;;;5052722;28;20688;-44
2022/08/11 01:23:57;;;;;;;7.00;2.30;;;18.50;97.70;;;;;;5052709;28;20172;-42
2022/08/11 01:26:41;;;;;;;5.20;2.47;;;18.50;97.80;;;;;;5053011;28;20172;-43
2022/08/11 01:29:44;;;;;;;4.07;2.27;;;18.40;97.90;;;;;;5052657;28;20180;-42
2022/08/11 01:32:47;;;;;;;4.10;2.10;;;18.40;98.10;;;;;;5052557;28;20204;-41
2022/08/11 01:35:20;;;;;;;5.80;2.80;;;18.20;98.40;;;;;;5052536;28;20183;-41
2022/08/11 01:38:09;;;;;;;5.77;2.20;;;18.20;98.60;;;;;;5053218;28;20182;-42
2022/08/11 01:40:37;;;;;;;7.43;3.20;;;18.20;98.90;;;;;;5052576;28;20208;-41
2022/08/11 01:46:38;;;;;;;4.93;2.40;;;18.00;99.60;;;;;;5056587;28;20697;-40
2022/08/11 01:49:20;;;;;;;4.17;2.83;;;18.00;99.90;;;;;;5056112;28;20608;-42
2022/08/11 01:51:50;;;;;;;5.77;2.50;;;18.00;99.90;;;;;;5056296;28;20208;-41
2022/08/11 01:54:55;;;;;;;4.70;2.63;;;17.90;99.90;;;;;;5056295;28;20187;-42
2022/08/11 01:57:59;;;;;;;7.80;2.63;;;17.90;99.90;;;;;;5034053;28;20676;-43
2022/08/11 02:00:29;;;;;;;5.47;2.27;;;17.80;99.90;;;;;;5034059;28;20212;-42
2022/08/11 02:03:16;;;;;;;7.67;3.03;;;17.80;99.90;;;;;;5017215;28;20212;-43
2022/08/11 02:05:47;;;;;;;7.77;2.80;;;17.80;99.90;;;;;;5048148;28;20195;-44
2022/08/11 02:08:40;;;;;;;5.70;2.87;;;17.70;99.90;;;;;;5056169;28;20180;-42
2022/08/11 02:11:29;;;;;;;10.30;2.67;;;17.70;99.90;;;;;;5055715;28;20656;-43
2022/08/11 02:14:19;;;;;;;10.33;2.60;;;17.60;99.90;;;;;;5055554;28;20647;-41
2022/08/11 02:17:21;;;;;;;3.73;2.67;;;17.60;99.90;;;;;;5055371;28;20205;-42
2022/08/11 02:25:50;;;;;;;7.80;2.97;;;17.20;99.90;;;;;;5055761;28;20641;-42
2022/08/11 02:28:15;;;;;;;8.57;2.80;;;17.20;99.90;;;;;;5055590;28;20175;-43
2022/08/11 02:33:59;;;;;;;7.50;2.97;;;17.00;99.90;;;;;;5054445;28;20171;-41
2022/08/11 02:36:42;;;;;;;8.80;2.70;;;16.90;99.90;;;;;;5055239;28;20221;-43
2022/08/11 02:39:12;;;;;;;5.07;2.93;;;16.80;99.90;;;;;;5055966;28;20199;-41
2022/08/11 02:44:43;;;;;;;6.80;2.60;;;16.70;99.90;;;;;;5055881;28;20209;-42
2022/08/11 02:50:48;;;;;;;10.57;3.10;;;16.60;99.90;;;;;;5055743;28;20684;-42
2022/08/11 02:53:23;;;;;;;4.00;2.50;;;16.50;99.90;;;;;;5055179;28;20214;-41
2022/08/11 02:56:21;;;;;;;4.43;2.63;;;16.50;99.90;;;;;;5055241;28;20179;-40
2022/08/11 02:59:52;;;;;;;7.63;3.60;;;16.40;99.90;;;;;;5053483;28;20314;-43
2022/08/11 03:01:58;;;;;;;5.03;2.80;;;16.40;99.90;;;;;;5053962;28;20215;-43
2022/08/11 03:04:50;;;;;;;5.40;2.83;;;16.40;99.90;;;;;;5053455;28;20191;-41
2022/08/11 03:07:53;;;;;;;8.27;3.23;;;16.30;99.90;;;;;;5054842;28;20172;-43
2022/08/11 03:10:28;;;;;;;11.57;2.93;;;16.20;99.90;;;;;;5054419;28;20679;-41
2022/08/11 03:19:31;;;;;;;6.10;2.97;;;16.10;99.90;;;;;;5054276;28;20737;-41
2022/08/11 03:22:38;;;;;;;7.40;3.23;;;16.10;99.90;;;;;;5054405;28;20200;-41
2022/08/11 03:25:11;;;;;;;8.93;3.27;;;16.10;99.90;;;;;;5053828;28;20291;-41
2022/08/11 03:27:52;;;;;;;7.87;2.90;;;16.00;99.90;;;;;;5054414;28;20184;-41
2022/08/11 03:30:45;;;;;;;6.70;3.27;;;16.10;99.90;;;;;;5054141;28;20608;-42
2022/08/11 03:36:34;;;;;;;7.10;3.03;;;16.00;99.90;;;;;;5054019;28;20171;-41
2022/08/11 03:39:02;;;;;;;10.87;3.60;;;16.00;99.90;;;;;;5054225;28;20196;-41
2022/08/11 03:41:47;;;;;;;18.30;3.20;;;16.00;99.90;;;;;;5054090;28;20564;-40
2022/08/11 03:45:06;;;;;;;8.13;3.10;;;16.00;99.90;;;;;;5054097;28;20200;-41
2022/08/11 03:47:51;;;;;;;9.77;3.20;;;15.90;99.90;;;;;;5032220;28;20252;-40
2022/08/11 03:50:46;;;;;;;4.93;3.00;;;15.90;99.90;;;;;;5054083;28;20660;-43
2022/08/11 03:54:03;;;;;;;10.87;2.97;;;15.80;99.90;;;;;;5054063;28;20219;-42
2022/08/11 03:57:05;;;;;;;10.27;3.30;;;15.80;99.90;;;;;;5041644;28;20196;-43
2022/08/11 03:59:50;;;;;;;8.60;3.37;;;15.70;99.90;;;;;;5053815;28;20202;-41
2022/08/11 04:02:28;;;;;;;9.20;3.50;;;15.60;99.90;;;;;;5053871;28;20165;-42
2022/08/11 04:05:38;;;;;;;9.43;3.10;;;15.60;99.90;;;;;;5053013;28;20237;-42
2022/08/11 04:08:06;;;;;;;12.90;3.60;;;15.50;99.90;;;;;;5053911;28;20172;-42
2022/08/11 04:10:54;;;;;;;6.67;2.83;;;15.50;99.90;;;;;;5053435;28;20570;-41
2022/08/11 04:13:34;;;;;;;11.30;3.33;;;15.50;99.90;;;;;;5053699;28;20222;-42
2022/08/11 04:16:18;;;;;;;9.70;3.37;;;15.50;99.90;;;;;;5053432;28;20576;-41
2022/08/11 04:19:05;;;;;;;8.53;4.07;;;15.40;99.90;;;;;;5053192;28;20258;-41
2022/08/11 04:21:34;;;;;;;10.33;4.13;;;15.40;99.90;;;;;;5053345;28;20200;-41
2022/08/11 04:24:38;;;;;;;9.33;4.17;;;15.40;99.90;;;;;;5053574;28;20238;-41
2022/08/11 04:27:33;;;;;;;15.90;4.33;;;15.30;99.90;;;;;;5053320;28;20164;-41
2022/08/11 04:30:04;;;;;;;11.27;4.40;;;15.20;99.90;;;;;;5053713;28;20247;-41
2022/08/11 04:32:46;;;;;;;26.00;5.00;;;15.30;99.90;;;;;;5053517;28;20164;-40
2022/08/11 04:35:43;;;;;;;17.50;4.70;;;15.30;99.90;;;;;;5053420;28;20192;-43
2022/08/11 04:38:29;;;;;;;18.73;5.00;;;15.30;99.90;;;;;;5053358;28;20195;-41
2022/08/11 04:41:31;;;;;;;18.00;4.07;;;15.30;99.90;;;;;;5053675;28;20196;-39
2022/08/11 04:43:57;;;;;;;19.73;5.00;;;15.40;99.90;;;;;;5053127;28;20243;-41
2022/08/11 04:46:28;;;;;;;11.40;4.20;;;15.40;99.90;;;;;;5053184;28;20255;-41
2022/08/11 05:01:40;;;;;;;24.40;4.77;;;15.50;99.90;;;;;;5052289;28;20207;-42
2022/08/11 05:07:33;;;;;;;17.23;3.90;;;15.50;99.90;;;;;;5053144;28;20247;-42
2022/08/11 05:10:32;;;;;;;16.67;4.17;;;15.60;99.90;;;;;;5053078;28;20218;-40
2022/08/11 05:27:09;;;;;;;17.80;4.00;;;15.60;99.90;;;;;;5053497;28;20180;-42
2022/08/11 05:36:15;;;;;;;9.70;3.43;;;16.20;99.90;;;;;;5056654;28;20207;-41
2022/08/11 05:58:10;;;;;;;4.27;2.90;;;17.00;99.90;;;;;;5056449;28;20243;-42
2022/08/11 06:00:44;;;;;;;4.30;3.17;;;17.10;99.90;;;;;;5055886;28;20215;-40
2022/08/11 06:03:18;;;;;;;7.67;3.30;;;17.30;99.90;;;;;;5056140;28;20172;-41
2022/08/11 06:05:44;;;;;;;3.60;2.80;;;17.40;99.90;;;;;;5055846;28;20209;-41
2022/08/11 06:08:12;;;;;;;8.57;3.00;;;17.50;99.90;;;;;;5055770;28;20176;-43
2022/08/11 06:10:40;;;;;;;5.40;3.10;;;17.70;99.90;;;;;;5055643;28;20219;-41
2022/08/11 06:13:07;;;;;;;5.17;3.20;;;17.80;99.90;;;;;;5055644;28;20173;-42
2022/08/11 06:15:49;;;;;;;11.07;3.07;;;18.00;99.90;;;;;;5055912;28;20204;-43
2022/08/11 06:18:15;;;;;;;7.57;2.80;;;18.20;99.90;;;;;;5055515;28;20188;-40
2022/08/11 06:20:52;;;;;;;8.80;2.77;;;18.40;99.90;;;;;;5055633;28;20220;-44
2022/08/11 06:23:22;;;;;;;6.17;3.03;;;18.50;99.90;;;;;;5055578;28;20521;-44
2022/08/11 06:25:50;;;;;;;5.30;2.70;;;18.70;99.90;;;;;;5055712;28;20210;-42
2022/08/11 06:28:21;;;;;;;7.03;2.97;;;18.90;99.90;;;;;;5054983;28;20172;-41
2022/08/11 06:30:47;;;;;;;5.23;3.07;;;19.00;99.90;;;;;;5055583;28;20262;-42
2022/08/11 06:33:42;;;;;;;5.63;3.17;;;19.20;99.90;;;;;;5055263;28;20698;-41
2022/08/11 06:36:20;;;;;;;9.87;3.60;;;19.30;99.90;;;;;;5055473;28;20157;-43
2022/08/11 06:38:52;;;;;;;6.40;3.13;;;19.50;99.90;;;;;;5055092;28;20703;-41
2022/08/11 06:41:30;;;;;;;8.57;3.57;;;19.60;99.90;;;;;;5053795;28;20604;-41
2022/08/11 06:43:56;;;;;;;6.50;3.33;;;19.80;99.90;;;;;;5055434;28;20195;-42
2022/08/11 06:46:30;;;;;;;7.90;3.50;;;19.90;99.90;;;;;;5055033;28;20208;-41
2022/08/11 06:48:57;;;;;;;7.33;3.43;;;20.10;99.90;;;;;;5055028;28;20200;-42
2022/08/11 06:51:23;;;;;;;6.57;3.30;;;20.30;99.90;;;;;;5054787;28;20200;-41
2022/08/11 06:53:58;;;;;;;22.63;4.33;;;20.50;99.90;;;;;;5055149;28;20607;-42
2022/08/11 07:02:13;;;;;;;5.90;3.27;;;21.10;99.90;;;;;;5054950;28;20210;-43
2022/08/11 07:04:47;;;;;;;6.73;3.57;;;21.30;99.90;;;;;;5054699;28;20172;-41
2022/08/11 07:16:00;;;;;;;4.60;3.67;;;22.20;99.90;;;;;;5054820;28;20746;-40
2022/08/11 07:30:09;;;;;;;3.77;3.00;;;23.00;99.90;;;;;;5053632;28;20295;-43
2022/08/11 07:32:50;;;;;;;15.80;3.53;;;23.20;99.90;;;;;;5054195;28;20241;-43
2022/08/11 07:35:20;;;;;;;8.20;3.37;;;23.40;99.90;;;;;;5054100;28;20651;-43
2022/08/11 07:37:57;;;;;;;6.80;3.27;;;23.50;99.90;;;;;;5054316;28;20253;-42
2022/08/11 07:40:24;;;;;;;5.67;2.93;;;23.70;99.90;;;;;;5053324;28;20578;-43
2022/08/11 07:42:52;;;;;;;2.80;2.60;;;23.90;99.90;;;;;;5052696;28;20270;-42
2022/08/11 07:53:36;;;;;;;6.80;2.80;;;24.40;98.40;;;;;;5054077;28;20221;-43
2022/08/11 07:56:04;;;;;;;6.27;2.60;;;24.50;97.90;;;;;;5053780;28;20279;-43
2022/08/11 08:18:07;;;;;;;3.50;2.40;;;25.70;96.30;;;;;;5054140;28;20242;-41
2022/08/11 08:20:43;;;;;;;3.50;2.33;;;25.80;95.80;;;;;;5053670;28;20219;-41
2022/08/11 08:23:09;;;;;;;13.70;2.97;;;25.90;95.20;;;;;;5053478;28;20164;-44
2022/08/11 08:25:38;;;;;;;12.83;2.37;;;26.00;95.80;;;;;;5053362;28;20199;-43
2022/08/11 08:28:14;;;;;;;6.80;2.40;;;26.10;95.60;;;;;;5053756;28;20219;-42
2022/08/11 08:30:49;;;;;;;7.27;2.77;;;26.10;95.30;;;;;;5054137;28;20200;-38
2022/08/11 08:33:24;;;;;;;10.80;2.60;;;26.20;94.50;;;;;;5053969;28;20167;-40
2022/08/11 08:36:10;;;;;;;6.97;2.53;;;26.40;94.50;;;;;;5053521;28;20263;-38
2022/08/11 08:38:40;;;;;;;6.23;2.70;;;26.40;94.70;;;;;;5053465;28;20196;-38
2022/08/11 08:41:07;;;;;;;6.30;2.50;;;26.60;94.60;;;;;;5053405;28;20199;-38
2022/08/11 08:43:34;;;;;;;6.37;2.60;;;26.70;94.10;;;;;;5053230;28;20176;-40
2022/08/11 08:46:01;;;;;;;6.57;2.47;;;26.90;94.20;;;;;;5053353;28;20188;-37
2022/08/11 08:48:29;;;;;;;5.33;2.60;;;27.00;93.70;;;;;;5053143;28;20188;-39
2022/08/11 08:53:52;;;;;;;8.97;2.43;;;27.20;93.70;;;;;;5057311;28;20214;-39
2022/08/11 08:56:23;;;;;;;10.23;2.40;;;27.40;93.10;;;;;;5057216;28;20180;-38
2022/08/11 08:58:49;;;;;;;7.73;2.30;;;27.60;93.10;;;;;;5057807;28;20211;-39
2022/08/11 09:01:21;;;;;;;15.57;3.00;;;27.70;92.80;;;;;;5058105;28;20196;-37
2022/08/11 09:03:47;;;;;;;6.43;2.50;;;27.80;92.70;;;;;;5057497;28;20519;-40
2022/08/11 09:06:15;;;;;;;3.07;2.30;;;27.90;91.60;;;;;;5057212;28;20265;-38
2022/08/11 09:08:42;;;;;;;8.07;2.53;;;28.00;92.00;;;;;;5057096;28;20267;-40
2022/08/11 09:13:54;;;;;;;2.40;2.20;;;28.20;90.80;;;;;;5056846;28;20175;-40
2022/08/11 09:16:22;;;;;;;6.10;2.07;;;28.20;91.10;;;;;;5057052;28;20183;-39
2022/08/11 09:18:48;;;;;;;4.87;2.03;;;28.40;91.10;;;;;;5056673;28;20298;-40
2022/08/11 09:21:16;;;;;;;10.63;2.17;;;28.60;91.80;;;;;;5056570;28;20232;-38
2022/08/11 09:29:13;;;;;;;6.13;2.07;;;28.80;90.50;;;;;;5056604;28;20172;-39
2022/08/11 09:31:40;;;;;;;6.20;1.87;;;28.90;89.90;;;;;;5056538;28;20601;-39
2022/08/11 09:34:08;;;;;;;5.60;2.30;;;29.00;89.70;;;;;;5056394;28;20173;-38
2022/08/11 09:42:03;;;;;;;5.43;2.20;;;29.20;90.30;;;;;;5056468;28;20707;-40
2022/08/11 09:44:49;;;;;;;4.70;2.13;;;29.30;91.20;;;;;;5056403;28;20753;-41
2022/08/11 09:47:24;;;;;;;2.78;2.00;;;29.40;90.70;;;;;;5056713;28;20608;-38
2022/08/11 09:50:01;;;;;;;1.90;1.70;;;29.60;90.00;;;;;;5056377;28;20237;-41
2022/08/11 09:52:31;;;;;;;7.45;2.20;;;29.60;86.50;;;;;;5056457;28;20169;-40
2022/08/11 09:54:58;;;;;;;2.38;2.15;;;29.70;88.90;;;;;;5056330;28;20188;-41
2022/08/11 10:00:11;;;;;;;6.60;2.28;;;29.90;88.50;;;;;;5055999;28;20265;-39
2022/08/11 10:02:43;;;;;;;8.30;2.00;;;29.90;88.80;;;;;;5056090;28;20533;-40
2022/08/11 10:08:00;;;;;;;2.17;1.98;;;30.10;82.40;;;;;;5056076;28;20632;-40
2022/08/11 10:10:26;;;;;;;3.92;2.10;;;30.20;83.60;;;;;;5055875;28;20195;-41
2022/08/11 10:13:03;;;;;;;4.57;2.28;;;30.30;85.00;;;;;;5055732;28;20176;-40
2022/08/11 10:15:33;;;;;;;6.25;2.00;;;30.40;82.60;;;;;;5055800;28;20168;-40
2022/08/11 10:18:41;;;;;;;4.07;1.92;;;30.50;83.50;;;;;;5055477;28;20202;-40
2022/08/11 10:21:38;;;;;;;2.10;1.90;;;30.60;82.10;;;;;;5055726;28;20203;-41
2022/08/11 10:26:59;;;;;;;5.47;2.38;;;30.70;84.20;;;;;;5055426;28;20540;-41
2022/08/11 10:35:15;;;;;;;4.50;2.08;;;30.80;82.20;;;;;;5055248;28;20168;-40
2022/08/11 10:37:43;;;;;;;2.75;2.17;;;30.80;83.40;;;;;;5055463;28;20262;-41
2022/08/11 10:40:14;;;;;;;3.63;1.83;;;30.90;82.00;;;;;;5055034;28;20214;-40
2022/08/11 10:48:10;;;;;;;5.40;1.90;;;31.10;76.00;;;;;;5055086;28;20171;-41
2022/08/11 10:58:55;;;;;;;6.60;2.30;;;31.50;80.10;;;;;;5055000;28;20270;-40
2022/08/11 11:01:29;;;;;;;4.57;2.08;;;31.60;81.90;;;;;;5054773;28;20652;-39
2022/08/11 11:03:57;;;;;;;2.65;2.15;;;31.60;76.30;;;;;;5054797;28;20218;-40
2022/08/11 11:06:26;;;;;;;2.60;1.90;;;31.60;77.50;;;;;;5054867;28;20215;-41
2022/08/11 11:09:10;;;;;;;2.45;1.83;;;31.70;80.20;;;;;;5054573;28;20176;-41
2022/08/11 11:20:15;;;;;;;5.18;2.33;;;32.10;80.50;;;;;;5054240;28;20258;-48
2022/08/11 11:22:46;;;;;;;4.72;1.90;;;32.20;74.80;;;;;;5054847;28;20211;-47
2022/08/11 11:25:24;;;;;;;4.80;2.45;;;32.20;73.20;;;;;;5054576;28;20239;-48
2022/08/11 11:28:11;;;;;;;6.05;1.98;;;32.10;67.00;;;;;;5054207;28;20255;-47
2022/08/11 11:30:54;;;;;;;2.92;2.13;;;32.00;66.40;;;;;;5054309;28;20680;-46
2022/08/11 11:33:46;;;;;;;5.40;2.20;;;31.60;68.20;;;;;;5054474;28;20168;-47
2022/08/11 11:36:36;;;;;;;2.55;1.90;;;31.60;74.10;;;;;;5052953;28;20207;-47
2022/08/11 11:39:02;;;;;;;2.40;2.20;;;31.70;73.70;;;;;;5054392;28;20668;-47
2022/08/11 11:41:28;;;;;;;2.55;2.00;;;31.90;73.30;;;;;;5053904;28;20311;-48
2022/08/11 11:43:58;;;;;;;3.35;1.90;;;32.10;75.60;;;;;;5053942;28;20181;-47
2022/08/11 11:46:26;;;;;;;3.72;2.10;;;32.20;69.60;;;;;;5054179;28;20545;-48
2022/08/11 11:48:53;;;;;;;5.57;1.90;;;32.20;68.60;;;;;;5054193;28;20187;-47
2022/08/11 11:51:21;;;;;;;6.32;1.90;;;32.20;70.40;;;;;;5053694;28;20222;-47
2022/08/11 11:53:48;;;;;;;2.10;1.90;;;32.20;72.30;;;;;;5054054;28;20636;-48
2022/08/11 11:56:15;;;;;;;5.18;1.95;;;32.40;70.40;;;;;;5053789;28;20176;-48
2022/08/11 12:01:26;;;;;;;6.20;2.15;;;32.10;66.00;;;;;;5053928;28;20257;-47
2022/08/11 12:03:55;;;;;;;2.58;2.05;;;32.10;65.20;;;;;;5053862;28;20208;-47
2022/08/11 12:06:24;;;;;;;5.15;2.05;;;32.20;68.20;;;;;;5052299;28;20225;-48
2022/08/11 12:08:52;;;;;;;2.28;2.08;;;32.30;64.40;;;;;;5053847;28;20264;-48
2022/08/11 12:14:23;;;;;;;3.35;1.90;;;32.40;67.90;;;;;;5051422;28;20266;-47
2022/08/11 12:16:49;;;;;;;3.47;2.28;;;32.50;67.60;;;;;;5053121;28;20282;-47
2022/08/11 12:19:17;;;;;;;3.83;2.00;;;32.60;63.90;;;;;;5054024;28;20283;-47
2022/08/11 12:27:21;;;;;;;2.15;1.95;;;32.60;68.50;;;;;;5053381;28;20167;-48
2022/08/11 12:29:54;;;;;;;4.43;1.77;;;32.80;73.10;;;;;;5053524;28;20196;-47
2022/08/11 12:32:20;;;;;;;3.13;1.88;;;32.90;66.70;;;;;;5053501;28;20175;-48
2022/08/11 12:34:47;;;;;;;5.13;2.30;;;32.90;65.10;;;;;;5053469;28;20259;-47
2022/08/11 12:37:18;;;;;;;3.70;2.00;;;32.90;69.90;;;;;;5053159;28;20184;-48
2022/08/11 12:45:28;;;;;;;2.22;2.03;;;33.20;74.50;;;;;;5053573;28;20253;-48
2022/08/11 12:53:58;;;;;;;6.47;2.10;;;33.40;72.30;;;;;;5053647;28;20167;-46
2022/08/11 13:04:52;;;;;;;6.95;2.25;;;33.90;71.00;;;;;;5053234;28;20274;-47
2022/08/11 13:07:18;;;;;;;3.17;1.85;;;34.00;73.50;;;;;;5053167;28;20251;-47
2022/08/11 13:09:45;;;;;;;2.88;2.15;;;34.10;70.10;;;;;;5053174;28;20288;-48
2022/08/11 13:14:57;;;;;;;9.75;2.28;;;34.40;70.90;;;;;;5053154;28;20187;-48
2022/08/11 13:17:23;;;;;;;2.83;1.88;;;34.10;59.00;;;;;;5052584;28;20192;-49
2022/08/11 13:19:50;;;;;;;5.10;1.95;;;33.80;60.00;;;;;;5053144;28;20556;-48
2022/08/11 13:22:23;;;;;;;4.20;2.40;;;33.60;61.90;;;;;;5052687;28;20267;-48
2022/08/11 13:24:50;;;;;;;3.70;2.10;;;33.50;61.70;;;;;;5052720;28;20180;-48
2022/08/11 13:27:17;;;;;;;3.22;2.20;;;33.50;66.40;;;;;;5052701;28;20552;-47
2022/08/11 13:29:45;;;;;;;9.18;2.70;;;33.50;61.30;;;;;;5052954;28;20246;-48
2022/08/11 13:32:12;;;;;;;3.65;2.30;;;33.40;64.40;;;;;;5052587;28;20743;-47
2022/08/11 13:34:41;;;;;;;4.85;2.20;;;33.60;67.50;;;;;;5052939;28;20580;-48
2022/08/11 13:37:08;;;;;;;3.17;1.80;;;33.80;64.20;;;;;;5052636;28;20250;-48
2022/08/11 13:39:35;;;;;;;4.97;2.45;;;34.00;63.00;;;;;;5055590;28;20222;-48
2022/08/11 13:42:02;;;;;;;4.25;2.10;;;34.00;58.40;;;;;;5056402;28;20196;-47
2022/08/11 13:44:36;;;;;;;4.65;2.05;;;33.80;58.10;;;;;;5056476;28;20541;-49
2022/08/11 13:47:04;;;;;;;4.32;1.70;;;33.80;63.70;;;;;;5056258;28;20617;-49
2022/08/11 13:49:31;;;;;;;6.75;2.00;;;33.80;61.50;;;;;;5056107;28;20192;-49
2022/08/11 13:51:58;;;;;;;5.13;2.28;;;33.80;58.00;;;;;;5056190;28;20204;-49
2022/08/11 13:54:34;;;;;;;10.82;2.38;;;33.60;57.50;;;;;;5056567;28;20183;-48
2022/08/11 13:57:03;;;;;;;2.65;2.13;;;33.40;57.50;;;;;;5056658;28;20262;-48
2022/08/11 13:59:29;;;;;;;3.97;1.92;;;33.20;57.70;;;;;;5055798;28;20251;-48
2022/08/11 14:02:02;;;;;;;4.78;1.92;;;33.00;58.30;;;;;;5055813;28;20192;-48
2022/08/11 14:04:33;;;;;;;7.75;2.50;;;32.80;58.30;;;;;;5055930;28;20159;-48
2022/08/11 14:07:03;;;;;;;2.22;2.00;;;32.80;58.80;;;;;;5056091;28;20192;-48
2022/08/11 14:09:35;;;;;;;3.83;1.85;;;33.00;61.70;;;;;;5056551;28;20604;-48
2022/08/11 14:15:01;;;;;;;3.15;2.00;;;33.40;59.80;;;;;;5056070;28;20544;-48
2022/08/11 14:17:30;;;;;;;3.67;2.20;;;33.40;57.80;;;;;;5055885;28;20241;-48
2022/08/11 14:19:59;;;;;;;5.43;2.40;;;33.30;57.90;;;;;;5055662;28;20576;-49
2022/08/11 14:22:26;;;;;;;2.03;1.92;;;33.30;57.80;;;;;;5055722;28;20187;-48
2022/08/11 14:24:52;;;;;;;4.65;1.90;;;33.20;58.50;;;;;;5055565;28;20692;-47
2022/08/11 14:27:25;;;;;;;3.45;2.10;;;33.20;57.70;;;;;;5055522;28;20323;-47
2022/08/11 14:29:52;;;;;;;2.50;2.08;;;33.10;56.70;;;;;;5055396;28;20172;-49
2022/08/11 14:32:20;;;;;;;5.15;2.42;;;33.10;58.90;;;;;;5055391;28;20636;-48
2022/08/11 14:34:47;;;;;;;3.70;2.03;;;33.10;57.50;;;;;;5055828;28;20188;-47
2022/08/11 14:37:17;;;;;;;5.38;2.40;;;33.10;58.10;;;;;;5055882;28;20183;-48
2022/08/11 14:39:46;;;;;;;5.65;2.40;;;33.20;64.00;;;;;;5055903;28;20644;-47
2022/08/11 14:47:55;;;;;;;3.83;2.13;;;33.00;56.90;;;;;;5055124;28;20249;-48
2022/08/11 14:50:25;;;;;;;2.35;1.92;;;32.80;57.40;;;;;;5054629;28;20242;-48
2022/08/11 14:53:05;;;;;;;7.15;2.08;;;32.80;57.50;;;;;;5055269;28;20688;-48
2022/08/11 14:58:26;;;;;;;3.60;2.20;;;32.90;61.70;;;;;;5055164;28;20539;-48
2022/08/11 15:00:55;;;;;;;5.13;2.13;;;33.10;57.80;;;;;;5054826;28;20200;-48
2022/08/11 15:03:24;;;;;;;7.03;2.33;;;33.20;56.50;;;;;;5054705;28;20177;-48
2022/08/11 15:05:51;;;;;;;3.85;2.55;;;33.30;56.60;;;;;;5054744;28;20176;-47
2022/08/11 15:08:19;;;;;;;2.88;2.47;;;33.30;57.30;;;;;;5054923;28;20205;-48
2022/08/11 15:10:47;;;;;;;2.63;2.13;;;33.20;56.10;;;;;;5054790;28;20311;-48
2022/08/11 15:13:20;;;;;;;3.80;2.03;;;33.30;61.10;;;;;;5055061;28;20181;-47
2022/08/11 15:18:31;;;;;;;4.65;1.83;;;33.70;63.50;;;;;;5054554;28;20253;-48
2022/08/11 15:37:35;;;;;;;2.85;2.20;;;33.50;55.50;;;;;;5054094;28;20163;-48
2022/08/11 15:45:53;;;;;;;3.10;2.20;;;33.30;57.20;;;;;;5054174;28;20210;-48
2022/08/11 15:48:31;;;;;;;2.30;2.10;;;33.50;56.40;;;;;;5054224;28;20211;-47
2022/08/11 15:51:24;;;;;;;3.65;2.13;;;33.50;56.70;;;;;;5053781;28;20196;-47
2022/08/11 15:53:52;;;;;;;2.95;2.10;;;33.50;55.90;;;;;;5050672;28;20196;-48
2022/08/11 15:56:19;;;;;;;4.93;2.22;;;33.40;56.00;;;;;;5053979;28;20180;-47
2022/08/11 16:04:23;;;;;;;4.47;2.50;;;33.40;58.80;;;;;;5054183;28;20167;-47
2022/08/11 16:06:59;;;;;;;5.85;2.50;;;33.60;59.60;;;;;;5053867;28;20239;-48
2022/08/11 16:10:08;;;;;;;10.55;2.65;;;33.80;55.00;;;;;;5053588;28;20164;-47
2022/08/11 16:12:40;;;;;;;3.70;2.20;;;33.70;56.30;;;;;;5053799;28;20202;-47
2022/08/11 16:17:58;;;;;;;3.40;2.30;;;33.60;55.80;;;;;;5053704;28;20195;-46
2022/08/11 16:20:26;;;;;;;3.53;2.10;;;33.40;55.90;;;;;;5053198;28;20617;-48
2022/08/11 16:22:59;;;;;;;2.72;1.90;;;33.30;55.20;;;;;;5053588;28;20230;-48
2022/08/11 16:25:25;;;;;;;5.07;2.50;;;33.30;55.70;;;;;;5053383;28;20499;-47
2022/08/11 16:28:02;;;;;;;5.55;2.80;;;33.40;55.80;;;;;;5053626;28;20226;-48
2022/08/11 16:30:30;;;;;;;7.40;2.17;;;33.40;55.70;;;;;;5053483;28;20210;-47
2022/08/11 16:32:58;;;;;;;6.78;2.60;;;33.40;54.70;;;;;;5053471;28;20184;-48
2022/08/11 16:40:58;;;;;;;4.50;2.40;;;33.50;56.80;;;;;;5055133;28;20257;-46
2022/08/11 16:49:03;;;;;;;6.35;2.47;;;33.00;56.50;;;;;;5053395;28;20673;-47
2022/08/11 16:51:30;;;;;;;7.28;2.58;;;32.90;57.60;;;;;;5053058;28;20208;-47
2022/08/11 16:53:56;;;;;;;3.70;2.60;;;32.70;57.40;;;;;;5053054;28;20258;-47
2022/08/11 16:56:32;;;;;;;2.53;2.20;;;32.50;57.40;;;;;;5053576;28;20207;-46
2022/08/11 16:59:13;;;;;;;5.72;2.28;;;32.20;57.10;;;;;;5053204;28;20278;-47
2022/08/11 17:01:44;;;;;;;4.80;2.63;;;32.10;58.50;;;;;;5053185;28;20203;-46
2022/08/11 17:13:10;;;;;;;5.93;2.80;;;31.60;59.60;;;;;;5055250;28;20176;-47
2022/08/11 17:18:41;;;;;;;8.43;2.80;;;31.40;59.40;;;;;;5056855;28;20237;-46
2022/08/11 17:21:11;;;;;;;3.20;2.33;;;31.30;59.20;;;;;;5056839;28;20200;-47
2022/08/11 17:23:46;;;;;;;4.18;2.50;;;31.20;59.40;;;;;;5056895;28;20544;-47
2022/08/11 17:26:21;;;;;;;6.63;2.50;;;31.10;59.80;;;;;;5057115;28;20175;-47
2022/08/11 17:28:58;;;;;;;6.78;2.70;;;31.10;60.10;;;;;;5056768;28;20239;-46
2022/08/11 17:36:55;;;;;;;6.03;2.38;;;30.90;59.80;;;;;;5056589;28;20167;-45
2022/08/11 17:39:27;;;;;;;9.13;2.58;;;30.80;60.00;;;;;;5056723;28;20295;-40
2022/08/11 17:50:11;;;;;;;4.28;2.38;;;30.50;60.90;;;;;;5056454;28;20283;-38
2022/08/11 18:01:03;;;;;;;5.97;2.58;;;30.20;61.00;;;;;;5056823;28;20618;-41
2022/08/11 18:03:32;;;;;;;5.03;2.47;;;30.10;61.10;;;;;;5056483;28;20191;-43
2022/08/11 18:06:11;;;;;;;3.28;2.65;;;30.00;60.70;;;;;;5054940;28;20725;-44
